ETWM

Details ICAO ETWM
Name Meppen
Region Germany - Military
Timezone Europe/Berlin (UTC+1.0)
Plans Departing 1
Arriving 2
Stats Elevation 68 ft / 21 m (AMSL)
Location 52.721944° 7.327494°
Runways 1
Magnetic Variation 1.945° E
Sunrise 2017-12-16 07:38:29 UTC / 2017-12-16 08:38:29 Local
Sunset 2017-12-16 15:16:54 UTC / 2017-12-16 16:16:54 Local
Advertisement - Login to hide

Runways

ID Width Length Bearing (true) Bearing (mag) Surface Threshold Offset Overrun Length
24 49 ft / 15 m 601 ft / 183 m 240.00° 238.06° Grass 0 ft / 0 m 0 ft / 0 m
6 49 ft / 15 m 601 ft / 183 m 60.00° 58.06° Grass 0 ft / 0 m 0 ft / 0 m

Map

Weather


0- 5 10 15 20 25 30 35+ Temperature / ° C

Clouds and Precipitation
Forecast for 2017-12-16 00:00 UTC. Updated an hour ago

Ground ~20,000 ft ~40,000 ft Winds

METAR

ETWM 152320Z AUTO VRB03KT 9999 // ////// 03/00 Q1002 ///

TAF

Not found

Frequencies

Tower 122.10 MHz Meppen INFO
Warning: Do not use this data for real-world aviation or navigation. No guarantee of current accuracy is given.